sensor_id;sensor_type;location;lat;lon;timestamp;P1;durP1;ratioP1;P2;durP2;ratioP2
68438;SDS011;55421;51.600;5.718;2022-12-07T00:01:34;19.00;;;9.70;;
68438;SDS011;55421;51.600;5.718;2022-12-07T00:04:07;12.10;;;7.70;;
68438;SDS011;55421;51.600;5.718;2022-12-07T00:06:38;11.70;;;8.00;;
68438;SDS011;55421;51.600;5.718;2022-12-07T00:09:09;15.00;;;8.70;;
68438;SDS011;55421;51.600;5.718;2022-12-07T00:11:38;12.70;;;8.80;;
68438;SDS011;55421;51.600;5.718;2022-12-07T00:14:08;19.00;;;9.00;;
68438;SDS011;55421;51.600;5.718;2022-12-07T00:16:38;13.60;;;9.20;;
68438;SDS011;55421;51.600;5.718;2022-12-07T00:19:05;13.20;;;8.10;;
68438;SDS011;55421;51.600;5.718;2022-12-07T00:21:34;12.60;;;8.80;;
68438;SDS011;55421;51.600;5.718;2022-12-07T00:24:03;10.50;;;7.60;;
68438;SDS011;55421;51.600;5.718;2022-12-07T00:26:36;12.50;;;7.90;;
68438;SDS011;55421;51.600;5.718;2022-12-07T00:29:24;14.40;;;9.20;;
68438;SDS011;55421;51.600;5.718;2022-12-07T00:31:51;14.70;;;9.30;;
68438;SDS011;55421;51.600;5.718;2022-12-07T00:34:20;15.20;;;9.90;;
68438;SDS011;55421;51.600;5.718;2022-12-07T00:36:48;13.90;;;8.90;;
68438;SDS011;55421;51.600;5.718;2022-12-07T00:39:15;15.90;;;9.60;;
68438;SDS011;55421;51.600;5.718;2022-12-07T00:41:42;14.40;;;8.50;;
68438;SDS011;55421;51.600;5.718;2022-12-07T00:44:09;12.40;;;8.20;;
68438;SDS011;55421;51.600;5.718;2022-12-07T00:46:35;12.60;;;8.30;;
68438;SDS011;55421;51.600;5.718;2022-12-07T00:49:02;10.90;;;8.40;;
68438;SDS011;55421;51.600;5.718;2022-12-07T00:51:29;15.70;;;9.10;;
68438;SDS011;55421;51.600;5.718;2022-12-07T00:53:56;16.00;;;9.60;;
68438;SDS011;55421;51.600;5.718;2022-12-07T00:56:24;15.50;;;9.30;;
68438;SDS011;55421;51.600;5.718;2022-12-07T00:58:55;13.40;;;8.60;;
68438;SDS011;55421;51.600;5.718;2022-12-07T01:01:30;13.30;;;8.40;;
68438;SDS011;55421;51.600;5.718;2022-12-07T01:03:59;13.70;;;8.10;;
68438;SDS011;55421;51.600;5.718;2022-12-07T01:06:28;13.30;;;9.00;;
68438;SDS011;55421;51.600;5.718;2022-12-07T01:08:55;14.00;;;9.40;;
68438;SDS011;55421;51.600;5.718;2022-12-07T01:11:24;17.50;;;10.70;;
68438;SDS011;55421;51.600;5.718;2022-12-07T01:13:55;14.90;;;10.10;;
68438;SDS011;55421;51.600;5.718;2022-12-07T01:16:25;14.40;;;9.30;;
68438;SDS011;55421;51.600;5.718;2022-12-07T01:18:55;16.30;;;9.40;;
68438;SDS011;55421;51.600;5.718;2022-12-07T01:21:29;15.00;;;8.80;;
68438;SDS011;55421;51.600;5.718;2022-12-07T01:24:01;13.60;;;8.90;;
68438;SDS011;55421;51.600;5.718;2022-12-07T01:26:28;14.20;;;7.80;;
68438;SDS011;55421;51.600;5.718;2022-12-07T01:28:55;16.00;;;9.20;;
68438;SDS011;55421;51.600;5.718;2022-12-07T01:31:23;13.10;;;9.20;;
68438;SDS011;55421;51.600;5.718;2022-12-07T01:33:54;13.60;;;8.90;;
68438;SDS011;55421;51.600;5.718;2022-12-07T01:38:59;13.40;;;9.00;;
68438;SDS011;55421;51.600;5.718;2022-12-07T01:41:30;14.40;;;8.70;;
68438;SDS011;55421;51.600;5.718;2022-12-07T01:44:24;11.90;;;7.80;;
68438;SDS011;55421;51.600;5.718;2022-12-07T01:46:55;15.00;;;8.50;;
68438;SDS011;55421;51.600;5.718;2022-12-07T01:49:36;11.80;;;8.20;;
68438;SDS011;55421;51.600;5.718;2022-12-07T01:52:27;14.20;;;8.80;;
68438;SDS011;55421;51.600;5.718;2022-12-07T01:55:02;14.50;;;10.10;;
68438;SDS011;55421;51.600;5.718;2022-12-07T01:57:32;15.40;;;9.80;;
68438;SDS011;55421;51.600;5.718;2022-12-07T02:00:03;13.60;;;8.90;;
68438;SDS011;55421;51.600;5.718;2022-12-07T02:02:35;14.40;;;8.60;;
68438;SDS011;55421;51.600;5.718;2022-12-07T02:05:05;11.40;;;7.10;;
68438;SDS011;55421;51.600;5.718;2022-12-07T02:07:36;12.10;;;7.90;;
68438;SDS011;55421;51.600;5.718;2022-12-07T02:10:22;14.50;;;8.80;;
68438;SDS011;55421;51.600;5.718;2022-12-07T02:13:27;12.50;;;8.60;;
68438;SDS011;55421;51.600;5.718;2022-12-07T02:16:18;13.60;;;9.00;;
68438;SDS011;55421;51.600;5.718;2022-12-07T02:28:30;12.80;;;7.60;;
68438;SDS011;55421;51.600;5.718;2022-12-07T02:31:10;12.30;;;8.00;;
68438;SDS011;55421;51.600;5.718;2022-12-07T02:33:44;10.50;;;8.10;;
68438;SDS011;55421;51.600;5.718;2022-12-07T02:36:40;12.70;;;8.60;;
68438;SDS011;55421;51.600;5.718;2022-12-07T02:39:17;12.50;;;7.60;;
68438;SDS011;55421;51.600;5.718;2022-12-07T02:42:19;16.70;;;8.20;;
68438;SDS011;55421;51.600;5.718;2022-12-07T02:44:52;11.30;;;8.00;;
68438;SDS011;55421;51.600;5.718;2022-12-07T02:47:21;9.70;;;7.30;;
68438;SDS011;55421;51.600;5.718;2022-12-07T02:52:17;13.40;;;7.70;;
68438;SDS011;55421;51.600;5.718;2022-12-07T02:54:44;12.20;;;8.20;;
68438;SDS011;55421;51.600;5.718;2022-12-07T02:57:35;14.20;;;8.50;;
68438;SDS011;55421;51.600;5.718;2022-12-07T03:00:11;11.80;;;7.90;;
68438;SDS011;55421;51.600;5.718;2022-12-07T03:06:06;11.80;;;7.30;;
68438;SDS011;55421;51.600;5.718;2022-12-07T03:09:06;9.30;;;6.60;;
68438;SDS011;55421;51.600;5.718;2022-12-07T03:12:08;12.80;;;7.20;;
68438;SDS011;55421;51.600;5.718;2022-12-07T03:14:42;13.50;;;7.80;;
68438;SDS011;55421;51.600;5.718;2022-12-07T03:17:20;13.80;;;8.40;;
68438;SDS011;55421;51.600;5.718;2022-12-07T03:19:53;15.70;;;7.90;;
68438;SDS011;55421;51.600;5.718;2022-12-07T03:22:25;12.30;;;8.40;;
68438;SDS011;55421;51.600;5.718;2022-12-07T03:24:58;12.00;;;7.20;;
68438;SDS011;55421;51.600;5.718;2022-12-07T03:27:33;13.10;;;7.30;;
68438;SDS011;55421;51.600;5.718;2022-12-07T03:30:08;11.80;;;7.00;;
68438;SDS011;55421;51.600;5.718;2022-12-07T03:33:08;12.30;;;7.40;;
68438;SDS011;55421;51.600;5.718;2022-12-07T03:35:50;10.90;;;7.30;;
68438;SDS011;55421;51.600;5.718;2022-12-07T03:38:33;13.20;;;7.40;;
68438;SDS011;55421;51.600;5.718;2022-12-07T03:41:18;10.50;;;7.20;;
68438;SDS011;55421;51.600;5.718;2022-12-07T03:43:49;14.80;;;6.40;;
68438;SDS011;55421;51.600;5.718;2022-12-07T03:49:48;10.20;;;6.40;;
68438;SDS011;55421;51.600;5.718;2022-12-07T03:55:04;11.10;;;6.80;;
68438;SDS011;55421;51.600;5.718;2022-12-07T03:57:56;13.60;;;6.50;;
68438;SDS011;55421;51.600;5.718;2022-12-07T04:00:28;11.20;;;6.90;;
68438;SDS011;55421;51.600;5.718;2022-12-07T04:02:55;14.50;;;7.30;;
68438;SDS011;55421;51.600;5.718;2022-12-07T04:05:22;12.30;;;7.30;;
68438;SDS011;55421;51.600;5.718;2022-12-07T04:07:50;10.70;;;6.90;;
68438;SDS011;55421;51.600;5.718;2022-12-07T04:10:17;11.70;;;6.30;;
68438;SDS011;55421;51.600;5.718;2022-12-07T04:12:44;10.30;;;6.70;;
68438;SDS011;55421;51.600;5.718;2022-12-07T04:15:11;10.40;;;6.90;;
68438;SDS011;55421;51.600;5.718;2022-12-07T04:17:38;7.10;;;5.90;;
68438;SDS011;55421;51.600;5.718;2022-12-07T04:20:06;12.10;;;7.50;;
68438;SDS011;55421;51.600;5.718;2022-12-07T04:22:33;12.70;;;6.70;;
68438;SDS011;55421;51.600;5.718;2022-12-07T04:24:59;12.10;;;6.50;;
68438;SDS011;55421;51.600;5.718;2022-12-07T04:27:26;8.90;;;5.90;;
68438;SDS011;55421;51.600;5.718;2022-12-07T04:29:52;11.60;;;6.60;;
68438;SDS011;55421;51.600;5.718;2022-12-07T04:32:19;8.50;;;6.10;;
68438;SDS011;55421;51.600;5.718;2022-12-07T04:34:46;10.50;;;5.90;;
68438;SDS011;55421;51.600;5.718;2022-12-07T04:37:12;10.80;;;6.70;;
68438;SDS011;55421;51.600;5.718;2022-12-07T04:39:39;11.30;;;5.90;;
68438;SDS011;55421;51.600;5.718;2022-12-07T04:42:06;11.20;;;6.60;;
68438;SDS011;55421;51.600;5.718;2022-12-07T04:44:32;9.90;;;6.00;;
68438;SDS011;55421;51.600;5.718;2022-12-07T04:46:59;9.70;;;5.20;;
68438;SDS011;55421;51.600;5.718;2022-12-07T04:49:26;8.60;;;4.70;;
68438;SDS011;55421;51.600;5.718;2022-12-07T04:51:52;9.10;;;5.60;;
68438;SDS011;55421;51.600;5.718;2022-12-07T04:54:19;11.40;;;6.50;;
68438;SDS011;55421;51.600;5.718;2022-12-07T04:56:46;10.50;;;6.70;;
68438;SDS011;55421;51.600;5.718;2022-12-07T04:59:14;13.60;;;6.30;;
68438;SDS011;55421;51.600;5.718;2022-12-07T05:01:42;9.40;;;5.90;;
68438;SDS011;55421;51.600;5.718;2022-12-07T05:04:09;11.10;;;5.40;;
68438;SDS011;55421;51.600;5.718;2022-12-07T05:06:36;9.70;;;5.70;;
68438;SDS011;55421;51.600;5.718;2022-12-07T05:09:03;8.80;;;5.70;;
68438;SDS011;55421;51.600;5.718;2022-12-07T05:11:30;7.00;;;5.80;;
68438;SDS011;55421;51.600;5.718;2022-12-07T05:14:11;10.70;;;6.80;;
68438;SDS011;55421;51.600;5.718;2022-12-07T05:16:41;9.20;;;6.20;;
68438;SDS011;55421;51.600;5.718;2022-12-07T05:19:09;12.20;;;6.40;;
68438;SDS011;55421;51.600;5.718;2022-12-07T05:21:37;9.20;;;5.60;;
68438;SDS011;55421;51.600;5.718;2022-12-07T05:24:05;7.60;;;5.70;;
68438;SDS011;55421;51.600;5.718;2022-12-07T05:26:33;9.90;;;5.80;;
68438;SDS011;55421;51.600;5.718;2022-12-07T05:29:00;10.80;;;5.70;;
68438;SDS011;55421;51.600;5.718;2022-12-07T05:31:27;11.60;;;5.80;;
68438;SDS011;55421;51.600;5.718;2022-12-07T05:33:54;9.90;;;6.80;;
68438;SDS011;55421;51.600;5.718;2022-12-07T05:36:21;13.80;;;6.50;;
68438;SDS011;55421;51.600;5.718;2022-12-07T05:38:48;9.80;;;5.60;;
68438;SDS011;55421;51.600;5.718;2022-12-07T05:41:17;8.80;;;5.70;;
68438;SDS011;55421;51.600;5.718;2022-12-07T05:44:04;10.20;;;5.40;;
68438;SDS011;55421;51.600;5.718;2022-12-07T05:46:32;8.80;;;5.10;;
68438;SDS011;55421;51.600;5.718;2022-12-07T05:48:59;7.90;;;5.30;;
68438;SDS011;55421;51.600;5.718;2022-12-07T05:51:25;6.70;;;5.20;;
68438;SDS011;55421;51.600;5.718;2022-12-07T05:53:52;9.10;;;5.90;;
68438;SDS011;55421;51.600;5.718;2022-12-07T05:56:19;9.30;;;6.30;;
68438;SDS011;55421;51.600;5.718;2022-12-07T05:58:45;9.40;;;5.20;;
68438;SDS011;55421;51.600;5.718;2022-12-07T06:01:31;8.70;;;5.80;;
68438;SDS011;55421;51.600;5.718;2022-12-07T06:03:57;11.60;;;5.80;;
68438;SDS011;55421;51.600;5.718;2022-12-07T06:06:24;13.30;;;6.20;;
68438;SDS011;55421;51.600;5.718;2022-12-07T06:08:51;8.60;;;5.30;;
68438;SDS011;55421;51.600;5.718;2022-12-07T06:11:17;10.20;;;5.00;;
68438;SDS011;55421;51.600;5.718;2022-12-07T06:14:02;13.80;;;6.50;;
68438;SDS011;55421;51.600;5.718;2022-12-07T06:16:29;12.10;;;6.00;;
68438;SDS011;55421;51.600;5.718;2022-12-07T06:18:56;15.40;;;6.10;;
68438;SDS011;55421;51.600;5.718;2022-12-07T06:21:22;10.40;;;5.90;;
68438;SDS011;55421;51.600;5.718;2022-12-07T06:23:49;8.30;;;5.50;;
68438;SDS011;55421;51.600;5.718;2022-12-07T06:26:15;10.40;;;5.80;;
68438;SDS011;55421;51.600;5.718;2022-12-07T06:28:42;9.00;;;5.20;;
68438;SDS011;55421;51.600;5.718;2022-12-07T06:31:09;7.80;;;5.20;;
68438;SDS011;55421;51.600;5.718;2022-12-07T06:33:36;9.00;;;5.70;;
68438;SDS011;55421;51.600;5.718;2022-12-07T06:36:02;8.40;;;6.00;;
68438;SDS011;55421;51.600;5.718;2022-12-07T06:38:29;10.30;;;6.00;;
68438;SDS011;55421;51.600;5.718;2022-12-07T06:40:56;13.90;;;5.90;;
68438;SDS011;55421;51.600;5.718;2022-12-07T06:43:22;9.40;;;6.10;;
68438;SDS011;55421;51.600;5.718;2022-12-07T06:45:49;12.20;;;5.80;;
68438;SDS011;55421;51.600;5.718;2022-12-07T06:48:15;8.40;;;5.40;;
68438;SDS011;55421;51.600;5.718;2022-12-07T06:50:47;9.00;;;5.30;;
68438;SDS011;55421;51.600;5.718;2022-12-07T06:53:14;12.30;;;5.60;;
68438;SDS011;55421;51.600;5.718;2022-12-07T06:55:42;12.20;;;6.10;;
68438;SDS011;55421;51.600;5.718;2022-12-07T06:58:08;13.90;;;6.40;;
68438;SDS011;55421;51.600;5.718;2022-12-07T07:00:35;7.60;;;4.80;;
68438;SDS011;55421;51.600;5.718;2022-12-07T07:03:02;11.20;;;6.70;;
68438;SDS011;55421;51.600;5.718;2022-12-07T07:05:28;12.70;;;6.70;;
68438;SDS011;55421;51.600;5.718;2022-12-07T07:07:55;11.50;;;7.20;;
68438;SDS011;55421;51.600;5.718;2022-12-07T07:10:21;11.60;;;5.80;;
68438;SDS011;55421;51.600;5.718;2022-12-07T07:12:48;9.90;;;6.20;;
68438;SDS011;55421;51.600;5.718;2022-12-07T07:15:14;10.00;;;6.50;;
68438;SDS011;55421;51.600;5.718;2022-12-07T07:17:41;13.50;;;7.10;;
68438;SDS011;55421;51.600;5.718;2022-12-07T07:20:08;8.30;;;6.00;;
68438;SDS011;55421;51.600;5.718;2022-12-07T07:22:35;12.90;;;7.40;;
68438;SDS011;55421;51.600;5.718;2022-12-07T07:25:02;13.40;;;7.10;;
68438;SDS011;55421;51.600;5.718;2022-12-07T07:27:29;9.50;;;6.70;;
68438;SDS011;55421;51.600;5.718;2022-12-07T07:29:56;10.00;;;6.10;;
68438;SDS011;55421;51.600;5.718;2022-12-07T07:32:22;12.60;;;6.50;;
68438;SDS011;55421;51.600;5.718;2022-12-07T07:34:49;10.40;;;6.50;;
68438;SDS011;55421;51.600;5.718;2022-12-07T07:37:16;11.90;;;7.40;;
68438;SDS011;55421;51.600;5.718;2022-12-07T07:39:42;15.60;;;7.80;;
68438;SDS011;55421;51.600;5.718;2022-12-07T07:42:09;13.50;;;7.60;;
68438;SDS011;55421;51.600;5.718;2022-12-07T07:44:35;11.10;;;7.20;;
68438;SDS011;55421;51.600;5.718;2022-12-07T07:47:02;11.30;;;6.90;;
68438;SDS011;55421;51.600;5.718;2022-12-07T07:49:29;11.20;;;6.40;;
68438;SDS011;55421;51.600;5.718;2022-12-07T07:51:55;9.90;;;6.10;;
68438;SDS011;55421;51.600;5.718;2022-12-07T07:54:22;11.70;;;7.50;;
68438;SDS011;55421;51.600;5.718;2022-12-07T07:56:49;12.00;;;7.60;;
68438;SDS011;55421;51.600;5.718;2022-12-07T07:59:15;11.70;;;6.70;;
68438;SDS011;55421;51.600;5.718;2022-12-07T08:01:42;12.60;;;7.40;;
68438;SDS011;55421;51.600;5.718;2022-12-07T08:04:08;10.90;;;6.80;;
68438;SDS011;55421;51.600;5.718;2022-12-07T08:06:35;16.20;;;8.80;;
68438;SDS011;55421;51.600;5.718;2022-12-07T08:09:02;15.10;;;8.40;;
68438;SDS011;55421;51.600;5.718;2022-12-07T08:11:31;11.50;;;7.90;;
68438;SDS011;55421;51.600;5.718;2022-12-07T08:13:58;12.50;;;7.40;;
68438;SDS011;55421;51.600;5.718;2022-12-07T08:16:24;16.00;;;8.50;;
68438;SDS011;55421;51.600;5.718;2022-12-07T08:18:51;13.50;;;7.30;;
68438;SDS011;55421;51.600;5.718;2022-12-07T08:21:17;12.70;;;7.90;;
68438;SDS011;55421;51.600;5.718;2022-12-07T08:23:44;14.20;;;8.20;;
68438;SDS011;55421;51.600;5.718;2022-12-07T08:26:13;17.50;;;9.20;;
68438;SDS011;55421;51.600;5.718;2022-12-07T08:28:42;16.20;;;10.10;;
68438;SDS011;55421;51.600;5.718;2022-12-07T08:31:16;13.80;;;7.80;;
68438;SDS011;55421;51.600;5.718;2022-12-07T08:33:46;10.20;;;7.20;;
68438;SDS011;55421;51.600;5.718;2022-12-07T08:36:13;15.10;;;9.00;;
68438;SDS011;55421;51.600;5.718;2022-12-07T08:38:41;14.70;;;9.20;;
68438;SDS011;55421;51.600;5.718;2022-12-07T08:41:08;15.70;;;9.80;;
68438;SDS011;55421;51.600;5.718;2022-12-07T08:43:35;13.40;;;8.30;;
68438;SDS011;55421;51.600;5.718;2022-12-07T08:46:09;14.90;;;7.10;;
68438;SDS011;55421;51.600;5.718;2022-12-07T08:48:56;11.40;;;6.90;;
68438;SDS011;55421;51.600;5.718;2022-12-07T08:51:29;10.70;;;7.10;;
68438;SDS011;55421;51.600;5.718;2022-12-07T08:53:57;13.10;;;7.90;;
68438;SDS011;55421;51.600;5.718;2022-12-07T08:56:26;16.30;;;7.80;;
68438;SDS011;55421;51.600;5.718;2022-12-07T08:58:53;10.10;;;6.30;;
68438;SDS011;55421;51.600;5.718;2022-12-07T09:01:19;11.00;;;7.00;;
68438;SDS011;55421;51.600;5.718;2022-12-07T09:03:46;13.00;;;6.40;;
68438;SDS011;55421;51.600;5.718;2022-12-07T09:06:12;13.00;;;5.70;;
68438;SDS011;55421;51.600;5.718;2022-12-07T09:08:42;12.40;;;6.00;;
68438;SDS011;55421;51.600;5.718;2022-12-07T09:11:13;11.90;;;6.50;;
68438;SDS011;55421;51.600;5.718;2022-12-07T09:13:39;9.80;;;7.30;;
68438;SDS011;55421;51.600;5.718;2022-12-07T09:16:06;12.30;;;6.20;;
68438;SDS011;55421;51.600;5.718;2022-12-07T09:18:33;10.30;;;6.30;;
68438;SDS011;55421;51.600;5.718;2022-12-07T09:20:59;11.70;;;6.60;;
68438;SDS011;55421;51.600;5.718;2022-12-07T09:23:26;17.50;;;6.90;;
68438;SDS011;55421;51.600;5.718;2022-12-07T09:25:52;10.00;;;6.30;;
68438;SDS011;55421;51.600;5.718;2022-12-07T09:28:19;11.70;;;6.40;;
68438;SDS011;55421;51.600;5.718;2022-12-07T09:30:49;13.90;;;6.80;;
68438;SDS011;55421;51.600;5.718;2022-12-07T09:33:15;9.10;;;6.50;;
68438;SDS011;55421;51.600;5.718;2022-12-07T09:35:48;10.70;;;6.80;;
68438;SDS011;55421;51.600;5.718;2022-12-07T09:38:17;11.00;;;5.90;;
68438;SDS011;55421;51.600;5.718;2022-12-07T09:40:45;8.10;;;6.10;;
68438;SDS011;55421;51.600;5.718;2022-12-07T09:43:15;10.50;;;5.80;;
68438;SDS011;55421;51.600;5.718;2022-12-07T09:45:46;9.10;;;5.70;;
68438;SDS011;55421;51.600;5.718;2022-12-07T09:48:18;11.80;;;5.20;;
68438;SDS011;55421;51.600;5.718;2022-12-07T09:50:58;7.40;;;4.70;;
68438;SDS011;55421;51.600;5.718;2022-12-07T09:53:34;10.50;;;6.20;;
68438;SDS011;55421;51.600;5.718;2022-12-07T09:56:04;11.70;;;5.70;;
68438;SDS011;55421;51.600;5.718;2022-12-07T09:58:32;6.90;;;5.10;;
68438;SDS011;55421;51.600;5.718;2022-12-07T10:01:09;8.30;;;4.90;;
68438;SDS011;55421;51.600;5.718;2022-12-07T10:03:43;11.90;;;4.90;;
68438;SDS011;55421;51.600;5.718;2022-12-07T10:06:17;9.40;;;4.50;;
68438;SDS011;55421;51.600;5.718;2022-12-07T10:08:44;7.50;;;4.60;;
68438;SDS011;55421;51.600;5.718;2022-12-07T10:11:11;10.70;;;3.60;;
68438;SDS011;55421;51.600;5.718;2022-12-07T10:13:39;11.50;;;4.60;;
68438;SDS011;55421;51.600;5.718;2022-12-07T10:18:52;6.10;;;4.10;;
68438;SDS011;55421;51.600;5.718;2022-12-07T10:21:24;9.20;;;4.40;;
68438;SDS011;55421;51.600;5.718;2022-12-07T10:29:16;8.30;;;3.80;;
68438;SDS011;55421;51.600;5.718;2022-12-07T10:31:54;8.60;;;3.80;;
68438;SDS011;55421;51.600;5.718;2022-12-07T10:34:35;11.00;;;4.40;;
68438;SDS011;55421;51.600;5.718;2022-12-07T10:39:51;7.80;;;3.50;;
68438;SDS011;55421;51.600;5.718;2022-12-07T10:42:27;9.40;;;3.80;;
68438;SDS011;55421;51.600;5.718;2022-12-07T10:45:13;13.70;;;4.20;;
68438;SDS011;55421;51.600;5.718;2022-12-07T10:48:13;7.70;;;3.00;;
68438;SDS011;55421;51.600;5.718;2022-12-07T10:56:51;4.20;;;2.20;;
68438;SDS011;55421;51.600;5.718;2022-12-07T10:59:46;4.60;;;2.10;;
68438;SDS011;55421;51.600;5.718;2022-12-07T11:02:34;9.10;;;2.80;;
68438;SDS011;55421;51.600;5.718;2022-12-07T11:05:16;5.50;;;2.50;;
68438;SDS011;55421;51.600;5.718;2022-12-07T11:16:49;7.40;;;3.30;;
68438;SDS011;55421;51.600;5.718;2022-12-07T11:22:30;6.10;;;2.60;;
68438;SDS011;55421;51.600;5.718;2022-12-07T11:25:32;7.70;;;2.50;;
68438;SDS011;55421;51.600;5.718;2022-12-07T11:28:55;9.50;;;2.70;;
68438;SDS011;55421;51.600;5.718;2022-12-07T11:31:50;9.60;;;3.30;;
68438;SDS011;55421;51.600;5.718;2022-12-07T11:37:21;6.80;;;2.90;;
68438;SDS011;55421;51.600;5.718;2022-12-07T11:40:01;7.60;;;2.50;;
68438;SDS011;55421;51.600;5.718;2022-12-07T11:42:37;5.60;;;2.80;;
68438;SDS011;55421;51.600;5.718;2022-12-07T11:45:23;6.60;;;3.00;;
68438;SDS011;55421;51.600;5.718;2022-12-07T11:48:19;6.80;;;2.60;;
68438;SDS011;55421;51.600;5.718;2022-12-07T11:50:54;7.80;;;3.30;;
68438;SDS011;55421;51.600;5.718;2022-12-07T11:56:16;8.90;;;2.50;;
68438;SDS011;55421;51.600;5.718;2022-12-07T11:58:53;6.70;;;2.60;;
68438;SDS011;55421;51.600;5.718;2022-12-07T12:06:38;9.90;;;2.90;;
68438;SDS011;55421;51.600;5.718;2022-12-07T12:09:15;4.30;;;2.90;;
68438;SDS011;55421;51.600;5.718;2022-12-07T12:14:53;7.50;;;3.10;;
68438;SDS011;55421;51.600;5.718;2022-12-07T12:20:40;8.20;;;3.50;;
68438;SDS011;55421;51.600;5.718;2022-12-07T12:23:33;7.30;;;3.80;;
68438;SDS011;55421;51.600;5.718;2022-12-07T12:26:06;5.80;;;3.00;;
68438;SDS011;55421;51.600;5.718;2022-12-07T12:34:01;5.30;;;2.30;;
68438;SDS011;55421;51.600;5.718;2022-12-07T12:39:14;3.90;;;2.40;;
68438;SDS011;55421;51.600;5.718;2022-12-07T12:46:53;7.70;;;3.20;;
68438;SDS011;55421;51.600;5.718;2022-12-07T12:51:57;6.30;;;2.60;;
68438;SDS011;55421;51.600;5.718;2022-12-07T12:54:31;4.80;;;2.00;;
68438;SDS011;55421;51.600;5.718;2022-12-07T12:57:32;4.60;;;2.00;;
68438;SDS011;55421;51.600;5.718;2022-12-07T13:00:19;5.60;;;1.50;;
68438;SDS011;55421;51.600;5.718;2022-12-07T13:02:52;3.30;;;1.30;;
68438;SDS011;55421;51.600;5.718;2022-12-07T13:05:27;4.30;;;1.60;;
68438;SDS011;55421;51.600;5.718;2022-12-07T13:15:45;4.30;;;1.70;;
68438;SDS011;55421;51.600;5.718;2022-12-07T13:26:35;3.60;;;1.80;;
68438;SDS011;55421;51.600;5.718;2022-12-07T13:29:16;4.20;;;1.60;;
68438;SDS011;55421;51.600;5.718;2022-12-07T13:31:56;4.50;;;1.50;;
68438;SDS011;55421;51.600;5.718;2022-12-07T13:37:15;2.60;;;1.00;;
68438;SDS011;55421;51.600;5.718;2022-12-07T13:40:00;4.80;;;1.30;;
68438;SDS011;55421;51.600;5.718;2022-12-07T13:42:38;4.00;;;2.30;;
68438;SDS011;55421;51.600;5.718;2022-12-07T13:45:23;4.50;;;1.60;;
68438;SDS011;55421;51.600;5.718;2022-12-07T13:51:17;4.80;;;2.10;;
68438;SDS011;55421;51.600;5.718;2022-12-07T13:53:53;5.40;;;1.60;;
68438;SDS011;55421;51.600;5.718;2022-12-07T13:56:36;3.80;;;1.40;;
68438;SDS011;55421;51.600;5.718;2022-12-07T13:59:05;4.40;;;1.40;;
68438;SDS011;55421;51.600;5.718;2022-12-07T14:01:50;2.20;;;1.30;;
68438;SDS011;55421;51.600;5.718;2022-12-07T14:04:30;2.50;;;1.40;;
68438;SDS011;55421;51.600;5.718;2022-12-07T14:07:00;2.90;;;1.30;;
68438;SDS011;55421;51.600;5.718;2022-12-07T14:09:54;4.80;;;1.70;;
68438;SDS011;55421;51.600;5.718;2022-12-07T14:14:53;4.50;;;2.20;;
68438;SDS011;55421;51.600;5.718;2022-12-07T14:17:23;5.10;;;1.70;;
68438;SDS011;55421;51.600;5.718;2022-12-07T14:20:02;3.90;;;2.10;;
68438;SDS011;55421;51.600;5.718;2022-12-07T14:22:36;6.60;;;2.20;;
68438;SDS011;55421;51.600;5.718;2022-12-07T14:27:47;4.10;;;2.20;;
68438;SDS011;55421;51.600;5.718;2022-12-07T14:30:18;8.30;;;2.50;;
68438;SDS011;55421;51.600;5.718;2022-12-07T14:32:46;5.40;;;2.10;;
68438;SDS011;55421;51.600;5.718;2022-12-07T14:35:18;5.40;;;2.30;;
68438;SDS011;55421;51.600;5.718;2022-12-07T14:37:47;6.30;;;2.00;;
68438;SDS011;55421;51.600;5.718;2022-12-07T14:40:25;5.90;;;2.50;;
68438;SDS011;55421;51.600;5.718;2022-12-07T14:42:57;8.60;;;2.20;;
68438;SDS011;55421;51.600;5.718;2022-12-07T14:45:28;5.90;;;1.90;;
68438;SDS011;55421;51.600;5.718;2022-12-07T14:47:54;6.70;;;1.90;;
68438;SDS011;55421;51.600;5.718;2022-12-07T14:50:21;4.70;;;1.40;;
68438;SDS011;55421;51.600;5.718;2022-12-07T14:52:56;4.20;;;1.40;;
68438;SDS011;55421;51.600;5.718;2022-12-07T14:55:28;3.70;;;1.20;;
68438;SDS011;55421;51.600;5.718;2022-12-07T14:57:57;4.00;;;1.20;;
68438;SDS011;55421;51.600;5.718;2022-12-07T15:00:26;3.60;;;1.00;;
68438;SDS011;55421;51.600;5.718;2022-12-07T15:02:54;3.80;;;0.90;;
68438;SDS011;55421;51.600;5.718;2022-12-07T15:05:21;3.70;;;1.10;;
68438;SDS011;55421;51.600;5.718;2022-12-07T15:07:49;5.90;;;1.10;;
68438;SDS011;55421;51.600;5.718;2022-12-07T15:10:28;3.70;;;1.30;;
68438;SDS011;55421;51.600;5.718;2022-12-07T15:12:58;3.60;;;1.30;;
68438;SDS011;55421;51.600;5.718;2022-12-07T15:15:47;2.60;;;1.20;;
68438;SDS011;55421;51.600;5.718;2022-12-07T15:18:15;2.00;;;1.30;;
68438;SDS011;55421;51.600;5.718;2022-12-07T15:20:41;3.10;;;1.00;;
68438;SDS011;55421;51.600;5.718;2022-12-07T15:23:09;2.90;;;0.90;;
68438;SDS011;55421;51.600;5.718;2022-12-07T15:25:40;4.50;;;1.40;;
68438;SDS011;55421;51.600;5.718;2022-12-07T15:30:37;3.20;;;1.10;;
68438;SDS011;55421;51.600;5.718;2022-12-07T15:33:04;2.80;;;1.20;;
68438;SDS011;55421;51.600;5.718;2022-12-07T15:35:31;2.10;;;1.20;;
68438;SDS011;55421;51.600;5.718;2022-12-07T15:37:57;3.00;;;1.60;;
68438;SDS011;55421;51.600;5.718;2022-12-07T15:40:24;4.00;;;1.60;;
68438;SDS011;55421;51.600;5.718;2022-12-07T15:42:50;6.40;;;1.70;;
68438;SDS011;55421;51.600;5.718;2022-12-07T15:45:17;5.10;;;1.50;;
68438;SDS011;55421;51.600;5.718;2022-12-07T15:47:44;1.90;;;1.30;;
68438;SDS011;55421;51.600;5.718;2022-12-07T15:50:15;3.50;;;2.00;;
68438;SDS011;55421;51.600;5.718;2022-12-07T15:52:42;3.80;;;2.00;;
68438;SDS011;55421;51.600;5.718;2022-12-07T15:55:09;7.00;;;3.30;;
68438;SDS011;55421;51.600;5.718;2022-12-07T15:57:37;7.20;;;2.90;;
68438;SDS011;55421;51.600;5.718;2022-12-07T16:00:07;4.60;;;2.60;;
68438;SDS011;55421;51.600;5.718;2022-12-07T16:02:36;5.60;;;3.00;;
68438;SDS011;55421;51.600;5.718;2022-12-07T16:05:03;4.30;;;2.70;;
68438;SDS011;55421;51.600;5.718;2022-12-07T16:07:30;6.90;;;3.20;;
68438;SDS011;55421;51.600;5.718;2022-12-07T16:09:57;4.90;;;2.70;;
68438;SDS011;55421;51.600;5.718;2022-12-07T16:12:23;4.50;;;2.50;;
68438;SDS011;55421;51.600;5.718;2022-12-07T16:14:51;8.80;;;2.60;;
68438;SDS011;55421;51.600;5.718;2022-12-07T16:17:17;6.40;;;2.70;;
68438;SDS011;55421;51.600;5.718;2022-12-07T16:19:44;6.20;;;2.50;;
68438;SDS011;55421;51.600;5.718;2022-12-07T16:22:11;6.40;;;2.80;;
68438;SDS011;55421;51.600;5.718;2022-12-07T16:24:37;6.50;;;3.10;;
68438;SDS011;55421;51.600;5.718;2022-12-07T16:27:04;4.80;;;2.70;;
68438;SDS011;55421;51.600;5.718;2022-12-07T16:29:30;5.00;;;2.60;;
68438;SDS011;55421;51.600;5.718;2022-12-07T16:31:57;6.40;;;2.80;;
68438;SDS011;55421;51.600;5.718;2022-12-07T16:34:23;5.00;;;2.30;;
68438;SDS011;55421;51.600;5.718;2022-12-07T16:36:50;4.50;;;2.70;;
68438;SDS011;55421;51.600;5.718;2022-12-07T16:39:16;3.40;;;2.30;;
68438;SDS011;55421;51.600;5.718;2022-12-07T16:41:44;6.30;;;2.70;;
68438;SDS011;55421;51.600;5.718;2022-12-07T16:44:12;6.80;;;2.50;;
68438;SDS011;55421;51.600;5.718;2022-12-07T16:46:40;4.60;;;2.20;;
68438;SDS011;55421;51.600;5.718;2022-12-07T16:49:11;4.30;;;2.50;;
68438;SDS011;55421;51.600;5.718;2022-12-07T16:51:39;4.90;;;2.60;;
68438;SDS011;55421;51.600;5.718;2022-12-07T16:54:09;4.80;;;2.40;;
68438;SDS011;55421;51.600;5.718;2022-12-07T16:56:39;5.80;;;2.60;;
68438;SDS011;55421;51.600;5.718;2022-12-07T16:59:07;5.40;;;2.50;;
68438;SDS011;55421;51.600;5.718;2022-12-07T17:01:34;4.30;;;2.90;;
68438;SDS011;55421;51.600;5.718;2022-12-07T17:04:02;8.90;;;3.60;;